createdAt,value
2023-05-21T00:00:02.470Z,57.31
2023-05-21T00:05:15.600Z,57.24
2023-05-21T00:10:17.471Z,57.54
2023-05-21T00:15:19.328Z,57.51
2023-05-21T00:20:21.997Z,57.77
2023-05-21T00:25:23.987Z,57.92
2023-05-21T00:30:25.853Z,58.15
2023-05-21T00:35:27.794Z,58.03
2023-05-21T00:40:31.221Z,58.48
2023-05-21T00:45:33.392Z,58.50
2023-05-21T00:50:36.304Z,58.85
2023-05-21T00:55:38.804Z,58.54
2023-05-21T01:00:40.866Z,58.51
2023-05-21T01:05:45.268Z,58.90
2023-05-21T01:10:48.235Z,58.94
2023-05-21T01:15:51.209Z,59.14
2023-05-21T01:20:53.793Z,59.16
2023-05-21T01:25:55.706Z,59.27
2023-05-21T01:31:00.867Z,58.86
2023-05-21T01:36:24.508Z,59.68
2023-05-21T01:41:29.524Z,59.59
2023-05-21T01:46:36.530Z,59.90
2023-05-21T01:51:39.257Z,59.74
2023-05-21T01:56:41.556Z,59.78
2023-05-21T02:01:43.723Z,59.63
2023-05-21T02:06:45.673Z,59.51
2023-05-21T02:11:47.601Z,60.09
2023-05-21T02:16:49.912Z,60.12
2023-05-21T02:21:51.770Z,60.10
2023-05-21T02:26:53.623Z,59.79
2023-05-21T02:31:55.718Z,59.90
2023-05-21T02:36:58.936Z,60.10
2023-05-21T02:42:00.855Z,60.00
2023-05-21T02:47:02.753Z,60.06
2023-05-21T02:52:05.491Z,59.99
2023-05-21T02:57:07.497Z,60.32
2023-05-21T03:02:09.438Z,60.12
2023-05-21T03:07:14.083Z,60.24
2023-05-21T03:12:16.005Z,60.45
2023-05-21T03:17:18.207Z,60.29
2023-05-21T03:22:20.169Z,60.02
2023-05-21T03:27:22.136Z,59.87
2023-05-21T03:32:24.132Z,60.08
2023-05-21T03:37:27.045Z,59.99
2023-05-21T03:42:29.147Z,60.10
2023-05-21T03:47:32.120Z,60.08
2023-05-21T03:52:36.393Z,60.16
2023-05-21T03:57:38.456Z,59.97
2023-05-21T04:02:41.107Z,60.01
2023-05-21T04:07:43.128Z,60.09
2023-05-21T04:12:45.068Z,60.18
2023-05-21T04:17:47.080Z,60.26
2023-05-21T04:22:49.190Z,60.57
2023-05-21T04:27:51.164Z,61.13
2023-05-21T04:32:54.975Z,60.67
2023-05-21T04:37:57.148Z,60.47
2023-05-21T04:43:00.981Z,60.87
2023-05-21T04:48:03.812Z,61.30
2023-05-21T04:53:05.715Z,60.88
2023-05-21T04:58:07.761Z,61.21
2023-05-21T05:03:11.503Z,60.79
2023-05-21T05:08:15.735Z,60.73
2023-05-21T05:13:18.284Z,60.28
2023-05-21T05:18:20.536Z,60.29
2023-05-21T05:23:22.407Z,59.64
2023-05-21T05:28:25.933Z,59.51
2023-05-21T05:33:27.892Z,59.57
2023-05-21T05:38:30.338Z,59.62
2023-05-21T05:43:32.428Z,59.22
2023-05-21T05:48:35.582Z,58.57
2023-05-21T05:53:37.993Z,58.23
2023-05-21T05:58:40.074Z,57.50
2023-05-21T06:03:47.552Z,57.58
2023-05-21T06:08:51.491Z,56.80
2023-05-21T06:13:54.482Z,56.73
2023-05-21T06:18:57.792Z,56.25
2023-05-21T06:24:00.108Z,55.30
2023-05-21T06:29:04.056Z,54.73
2023-05-21T06:34:06.789Z,53.88
2023-05-21T06:39:08.797Z,52.71
2023-05-21T06:44:11.144Z,52.11
2023-05-21T06:49:14.599Z,51.84
2023-05-21T06:54:17.879Z,51.29
2023-05-21T06:59:19.797Z,51.34
2023-05-21T07:04:21.728Z,51.47
2023-05-21T07:09:24.737Z,51.45
2023-05-21T07:14:27.038Z,51.35
2023-05-21T07:19:29.226Z,51.16
2023-05-21T07:24:31.319Z,50.99
2023-05-21T07:29:34.320Z,50.97
2023-05-21T07:34:36.295Z,50.93
2023-05-21T07:39:39.725Z,50.34
2023-05-21T07:44:42.103Z,49.69
2023-05-21T07:49:59.454Z,48.75
2023-05-21T07:55:02.219Z,48.13
2023-05-21T08:00:09.723Z,46.97
2023-05-21T08:05:16.945Z,45.93
2023-05-21T08:10:19.789Z,45.20
2023-05-21T08:15:24.248Z,44.18
2023-05-21T08:20:26.798Z,43.87
2023-05-21T08:25:29.179Z,42.54
2023-05-21T08:30:32.776Z,41.62
2023-05-21T08:35:35.229Z,43.60
2023-05-21T08:40:51.981Z,42.73
2023-05-21T08:45:56.015Z,42.60
2023-05-21T08:51:01.976Z,40.84
2023-05-21T08:56:09.663Z,40.31
2023-05-21T09:01:19.624Z,39.45
2023-05-21T09:06:26.557Z,39.55
2023-05-21T09:11:29.806Z,38.55
2023-05-21T09:16:33.695Z,39.24
2023-05-21T09:21:36.240Z,39.18
2023-05-21T09:26:48.427Z,39.79
2023-05-21T09:31:50.538Z,39.81
2023-05-21T09:36:57.827Z,38.74
2023-05-21T09:41:59.853Z,38.22
2023-05-21T09:47:02.350Z,39.00
2023-05-21T09:52:04.484Z,38.04
2023-05-21T09:57:06.628Z,38.49
2023-05-21T10:02:22.608Z,38.09
2023-05-21T10:07:27.327Z,38.83
2023-05-21T10:12:31.014Z,38.34
2023-05-21T10:17:33.107Z,37.89
2023-05-21T10:22:36.474Z,37.10
2023-05-21T10:27:38.717Z,37.71
2023-05-21T10:32:42.362Z,37.05
2023-05-21T10:37:46.176Z,37.60
2023-05-21T10:43:05.927Z,37.82
2023-05-21T10:48:16.751Z,38.05
2023-05-21T10:53:43.818Z,37.57
2023-05-21T10:59:18.536Z,38.91
2023-05-21T11:04:26.886Z,38.72
2023-05-21T11:09:28.755Z,38.37
2023-05-21T11:14:43.094Z,38.36
2023-05-21T11:19:48.069Z,38.59
2023-05-21T11:24:51.510Z,38.37
2023-05-21T11:29:55.873Z,38.69
2023-05-21T11:35:02.396Z,38.54
2023-05-21T11:40:18.110Z,39.04
2023-05-21T11:45:31.433Z,38.28
2023-05-21T11:50:34.958Z,37.25
2023-05-21T11:55:43.696Z,36.92
2023-05-21T12:00:45.819Z,38.34
2023-05-21T12:05:49.043Z,38.05
2023-05-21T12:10:59.131Z,37.67
2023-05-21T12:16:03.968Z,38.01
2023-05-21T12:21:07.148Z,38.21
2023-05-21T12:26:09.409Z,37.92
2023-05-21T12:31:17.930Z,37.63
2023-05-21T12:36:26.947Z,38.31
2023-05-21T12:41:29.927Z,37.79
2023-05-21T12:46:31.962Z,38.05
2023-05-21T12:51:40.250Z,37.63
2023-05-21T12:56:45.813Z,37.57
2023-05-21T13:01:48.588Z,38.27
2023-05-21T13:06:50.479Z,38.75
2023-05-21T13:11:52.335Z,38.47
2023-05-21T13:16:54.266Z,38.78
2023-05-21T13:21:56.717Z,38.06
2023-05-21T13:26:58.674Z,37.73
2023-05-21T13:32:00.670Z,38.40
2023-05-21T13:37:02.553Z,38.66
2023-05-21T13:42:05.925Z,39.13
2023-05-21T13:47:09.084Z,38.33
2023-05-21T13:52:12.117Z,38.32
2023-05-21T13:57:15.659Z,36.93
2023-05-21T14:02:19.693Z,37.49
2023-05-21T14:07:24.247Z,37.07
2023-05-21T14:12:35.409Z,36.26
2023-05-21T14:17:40.401Z,36.81
2023-05-21T14:22:44.760Z,36.81
2023-05-21T14:27:46.710Z,36.69
2023-05-21T14:32:52.792Z,36.63
2023-05-21T14:37:54.772Z,37.26
2023-05-21T14:42:56.686Z,36.31
2023-05-21T14:48:08.448Z,37.04
2023-05-21T14:53:12.054Z,36.77
2023-05-21T14:58:15.049Z,36.85
2023-05-21T15:03:26.419Z,35.72
2023-05-21T15:08:29.466Z,37.13
2023-05-21T15:13:31.700Z,37.09
2023-05-21T15:18:34.223Z,36.96
2023-05-21T15:23:37.123Z,37.00
2023-05-21T15:28:39.236Z,37.16
2023-05-21T15:33:42.031Z,37.26
2023-05-21T15:38:44.459Z,37.72
2023-05-21T15:43:46.618Z,37.54
2023-05-21T15:48:48.631Z,37.75
2023-05-21T15:53:50.572Z,38.03
2023-05-21T15:58:52.917Z,38.51
2023-05-21T16:03:55.262Z,38.63
2023-05-21T16:08:58.312Z,38.65
2023-05-21T16:14:00.243Z,38.62
2023-05-21T16:19:02.238Z,38.69
2023-05-21T16:24:04.306Z,38.21
2023-05-21T16:29:06.256Z,38.28
2023-05-21T16:34:08.255Z,38.29
2023-05-21T16:39:10.268Z,38.35
2023-05-21T16:44:12.490Z,38.17
2023-05-21T16:49:14.436Z,38.14
2023-05-21T16:54:16.290Z,38.19
2023-05-21T16:59:18.134Z,38.66
2023-05-21T17:04:20.073Z,38.80
2023-05-21T17:09:21.978Z,38.66
2023-05-21T17:14:33.859Z,38.54
2023-05-21T17:19:37.449Z,38.87
2023-05-21T17:24:39.384Z,39.03
2023-05-21T17:29:41.589Z,39.30
2023-05-21T17:34:43.942Z,39.31
2023-05-21T17:39:45.793Z,39.38
2023-05-21T17:44:47.750Z,39.77
2023-05-21T17:49:49.631Z,39.79
2023-05-21T17:54:51.610Z,40.06
2023-05-21T17:59:55.222Z,40.14
2023-05-21T18:04:57.247Z,40.64
2023-05-21T18:09:59.122Z,40.64
2023-05-21T18:15:02.350Z,40.94
2023-05-21T18:20:04.862Z,41.28
2023-05-21T18:25:07.339Z,41.60
2023-05-21T18:30:09.760Z,41.87
2023-05-21T18:35:13.636Z,42.60
2023-05-21T18:40:18.214Z,43.33
2023-05-21T18:45:20.084Z,43.85
2023-05-21T18:50:22.025Z,44.66
2023-05-21T18:55:24.021Z,45.37
2023-05-21T19:00:26.046Z,46.06
2023-05-21T19:05:28.297Z,46.60
2023-05-21T19:10:30.840Z,47.51
2023-05-21T19:15:33.014Z,47.85
2023-05-21T19:20:36.862Z,48.39
2023-05-21T19:25:39.249Z,49.10
2023-05-21T19:30:41.163Z,49.59
2023-05-21T19:35:43.504Z,50.36
2023-05-21T19:40:45.587Z,50.49
2023-05-21T19:45:47.582Z,51.07
2023-05-21T19:50:49.457Z,51.33
2023-05-21T19:55:51.307Z,51.64
2023-05-21T20:00:55.948Z,52.11
2023-05-21T20:05:58.801Z,52.71
2023-05-21T20:11:00.723Z,52.95
2023-05-21T20:16:02.617Z,53.44
2023-05-21T20:21:06.514Z,53.78
2023-05-21T20:26:08.419Z,54.23
2023-05-21T20:31:11.330Z,54.27
2023-05-21T20:36:15.381Z,54.74
2023-05-21T20:41:17.364Z,54.93
2023-05-21T20:46:20.099Z,55.21
2023-05-21T20:51:22.127Z,55.63
2023-05-21T20:56:40.053Z,55.74
2023-05-21T21:01:43.766Z,56.06
2023-05-21T21:06:48.372Z,56.35
2023-05-21T21:11:50.280Z,56.48
2023-05-21T21:16:52.142Z,56.57
2023-05-21T21:21:54.039Z,56.40
2023-05-21T21:26:55.994Z,56.55
2023-05-21T21:31:57.928Z,56.79
2023-05-21T21:36:59.813Z,57.15
2023-05-21T21:42:01.922Z,57.22
2023-05-21T21:47:03.869Z,57.64
2023-05-21T21:52:07.187Z,57.47
2023-05-21T21:57:09.080Z,57.69
2023-05-21T22:02:11.034Z,57.84
2023-05-21T22:07:17.052Z,57.89
2023-05-21T22:12:19.035Z,57.88
2023-05-21T22:17:21.507Z,58.33
2023-05-21T22:22:23.513Z,58.45
2023-05-21T22:27:25.463Z,58.36
2023-05-21T22:32:27.309Z,58.34
2023-05-21T22:37:29.220Z,58.42
2023-05-21T22:42:31.066Z,59.09
2023-05-21T22:47:32.969Z,58.86
2023-05-21T22:52:35.239Z,59.10
2023-05-21T22:57:37.112Z,59.32
2023-05-21T23:02:39.095Z,59.47
2023-05-21T23:07:41.497Z,59.58
2023-05-21T23:12:43.485Z,59.74
2023-05-21T23:17:46.005Z,59.71
2023-05-21T23:22:48.026Z,60.02
2023-05-21T23:27:49.941Z,59.87
2023-05-21T23:32:51.920Z,60.25
2023-05-21T23:37:53.843Z,60.35
2023-05-21T23:42:55.719Z,60.28
2023-05-21T23:47:57.622Z,60.60
2023-05-21T23:52:59.817Z,60.73
2023-05-21T23:58:01.640Z,60.56
